sensor_id;sensor_type;location;lat;lon;timestamp;pressure;altitude;pressure_sealevel;temperature
77355;BMP280;66422;51.202;19.936;2023-12-20T00:03:37;98701.20;;;7.04
77355;BMP280;66422;51.202;19.936;2023-12-20T00:18:56;98699.50;;;6.67
77355;BMP280;66422;51.202;19.936;2023-12-20T00:34:16;98679.22;;;6.63
77355;BMP280;66422;51.202;19.936;2023-12-20T00:49:36;98659.95;;;6.78
77355;BMP280;66422;51.202;19.936;2023-12-20T01:04:56;98649.34;;;6.59
77355;BMP280;66422;51.202;19.936;2023-12-20T01:20:15;98652.85;;;6.84
77355;BMP280;66422;51.202;19.936;2023-12-20T01:35:34;98622.37;;;6.63
77355;BMP280;66422;51.202;19.936;2023-12-20T01:50:54;98607.35;;;6.60
77355;BMP280;66422;51.202;19.936;2023-12-20T02:06:14;98566.35;;;6.88
77355;BMP280;66422;51.202;19.936;2023-12-20T02:21:34;98565.80;;;6.88
77355;BMP280;66422;51.202;19.936;2023-12-20T02:36:55;98522.55;;;6.86
77355;BMP280;66422;51.202;19.936;2023-12-20T02:52:14;98530.54;;;7.01
77355;BMP280;66422;51.202;19.936;2023-12-20T03:07:33;98535.72;;;7.43
77355;BMP280;66422;51.202;19.936;2023-12-20T03:22:53;98514.46;;;7.11
77355;BMP280;66422;51.202;19.936;2023-12-20T03:38:13;98506.42;;;7.01
77355;BMP280;66422;51.202;19.936;2023-12-20T03:53:32;98504.84;;;7.48
77355;BMP280;66422;51.202;19.936;2023-12-20T04:08:51;98502.10;;;7.29
77355;BMP280;66422;51.202;19.936;2023-12-20T04:24:11;98505.29;;;7.33
77355;BMP280;66422;51.202;19.936;2023-12-20T04:39:31;98481.55;;;7.21
77355;BMP280;66422;51.202;19.936;2023-12-20T04:54:50;98483.69;;;7.17
77355;BMP280;66422;51.202;19.936;2023-12-20T05:10:10;98483.77;;;7.22
77355;BMP280;66422;51.202;19.936;2023-12-20T05:25:29;98483.63;;;7.27
77355;BMP280;66422;51.202;19.936;2023-12-20T05:40:48;98482.05;;;7.30
77355;BMP280;66422;51.202;19.936;2023-12-20T05:56:08;98484.50;;;7.40
77355;BMP280;66422;51.202;19.936;2023-12-20T06:11:28;98476.55;;;7.17
77355;BMP280;66422;51.202;19.936;2023-12-20T06:26:47;98471.19;;;7.42
77355;BMP280;66422;51.202;19.936;2023-12-20T06:42:07;98464.20;;;7.27
77355;BMP280;66422;51.202;19.936;2023-12-20T06:57:26;98462.31;;;7.21
77355;BMP280;66422;51.202;19.936;2023-12-20T07:12:46;98472.61;;;7.04
77355;BMP280;66422;51.202;19.936;2023-12-20T07:28:05;98483.61;;;6.56
77355;BMP280;66422;51.202;19.936;2023-12-20T07:43:25;98495.66;;;6.99
77355;BMP280;66422;51.202;19.936;2023-12-20T07:58:45;98504.92;;;6.80
77355;BMP280;66422;51.202;19.936;2023-12-20T08:14:05;98505.72;;;6.53
77355;BMP280;66422;51.202;19.936;2023-12-20T08:29:25;98494.39;;;6.36
77355;BMP280;66422;51.202;19.936;2023-12-20T08:44:44;98499.29;;;6.41
77355;BMP280;66422;51.202;19.936;2023-12-20T09:00:04;98504.04;;;6.28
77355;BMP280;66422;51.202;19.936;2023-12-20T09:15:26;98513.69;;;6.03
77355;BMP280;66422;51.202;19.936;2023-12-20T09:30:46;98508.23;;;6.10
77355;BMP280;66422;51.202;19.936;2023-12-20T09:46:06;98491.17;;;6.10
77355;BMP280;66422;51.202;19.936;2023-12-20T10:01:28;98466.60;;;5.99
77355;BMP280;66422;51.202;19.936;2023-12-20T10:16:47;98459.61;;;6.15
77355;BMP280;66422;51.202;19.936;2023-12-20T10:32:27;98449.89;;;6.11
77355;BMP280;66422;51.202;19.936;2023-12-20T10:47:47;98444.67;;;5.96
77355;BMP280;66422;51.202;19.936;2023-12-20T11:03:09;98448.15;;;6.08
77355;BMP280;66422;51.202;19.936;2023-12-20T11:18:30;98437.79;;;6.00
77355;BMP280;66422;51.202;19.936;2023-12-20T11:34:12;98429.52;;;6.23
77355;BMP280;66422;51.202;19.936;2023-12-20T11:49:33;98418.61;;;6.41
77355;BMP280;66422;51.202;19.936;2023-12-20T12:04:52;98397.14;;;6.44
77355;BMP280;66422;51.202;19.936;2023-12-20T12:20:12;98390.09;;;6.41
77355;BMP280;66422;51.202;19.936;2023-12-20T12:35:31;98385.99;;;6.58
77355;BMP280;66422;51.202;19.936;2023-12-20T12:50:51;98368.45;;;6.51
77355;BMP280;66422;51.202;19.936;2023-12-20T13:06:12;98366.45;;;6.47
77355;BMP280;66422;51.202;19.936;2023-12-20T13:21:31;98366.23;;;6.39
77355;BMP280;66422;51.202;19.936;2023-12-20T13:36:51;98371.08;;;6.68
77355;BMP280;66422;51.202;19.936;2023-12-20T13:52:11;98362.90;;;6.54
77355;BMP280;66422;51.202;19.936;2023-12-20T14:07:30;98363.46;;;6.50
77355;BMP280;66422;51.202;19.936;2023-12-20T14:22:50;98381.48;;;6.35
77355;BMP280;66422;51.202;19.936;2023-12-20T14:38:10;98369.45;;;6.33
77355;BMP280;66422;51.202;19.936;2023-12-20T14:53:30;98375.96;;;6.05
77355;BMP280;66422;51.202;19.936;2023-12-20T15:08:49;98377.77;;;6.00
77355;BMP280;66422;51.202;19.936;2023-12-20T15:24:11;98368.90;;;6.06
77355;BMP280;66422;51.202;19.936;2023-12-20T15:39:35;98346.61;;;5.92
77355;BMP280;66422;51.202;19.936;2023-12-20T15:54:54;98338.55;;;5.79
77355;BMP280;66422;51.202;19.936;2023-12-20T16:10:14;98316.71;;;5.62
77355;BMP280;66422;51.202;19.936;2023-12-20T16:25:34;98333.85;;;5.71
77355;BMP280;66422;51.202;19.936;2023-12-20T16:40:56;98334.49;;;5.75
77355;BMP280;66422;51.202;19.936;2023-12-20T16:56:16;98315.31;;;5.66
77355;BMP280;66422;51.202;19.936;2023-12-20T17:11:37;98303.18;;;5.30
77355;BMP280;66422;51.202;19.936;2023-12-20T17:26:57;98276.59;;;4.99
77355;BMP280;66422;51.202;19.936;2023-12-20T17:42:17;98271.64;;;4.89
77355;BMP280;66422;51.202;19.936;2023-12-20T17:57:36;98274.95;;;5.00
77355;BMP280;66422;51.202;19.936;2023-12-20T18:12:56;98260.44;;;5.28
77355;BMP280;66422;51.202;19.936;2023-12-20T18:28:16;98250.39;;;5.45
77355;BMP280;66422;51.202;19.936;2023-12-20T18:43:36;98240.95;;;5.73
77355;BMP280;66422;51.202;19.936;2023-12-20T18:58:56;98253.14;;;5.96
77355;BMP280;66422;51.202;19.936;2023-12-20T19:14:15;98249.62;;;5.86
77355;BMP280;66422;51.202;19.936;2023-12-20T19:29:35;98245.35;;;5.87
77355;BMP280;66422;51.202;19.936;2023-12-20T19:44:55;98248.02;;;5.94
77355;BMP280;66422;51.202;19.936;2023-12-20T20:00:15;98239.65;;;5.96
77355;BMP280;66422;51.202;19.936;2023-12-20T20:15:34;98241.41;;;6.07
77355;BMP280;66422;51.202;19.936;2023-12-20T20:30:54;98276.59;;;6.09
77355;BMP280;66422;51.202;19.936;2023-12-20T20:46:15;98272.98;;;5.11
77355;BMP280;66422;51.202;19.936;2023-12-20T21:01:35;98292.96;;;5.25
77355;BMP280;66422;51.202;19.936;2023-12-20T21:16:55;98302.70;;;5.36
77355;BMP280;66422;51.202;19.936;2023-12-20T21:32:15;98301.44;;;5.24
77355;BMP280;66422;51.202;19.936;2023-12-20T21:47:35;98299.59;;;4.93
77355;BMP280;66422;51.202;19.936;2023-12-20T22:02:55;98294.27;;;4.73
77355;BMP280;66422;51.202;19.936;2023-12-20T22:18:17;98302.74;;;4.39
77355;BMP280;66422;51.202;19.936;2023-12-20T22:33:36;98301.54;;;4.38
77355;BMP280;66422;51.202;19.936;2023-12-20T22:48:56;98275.44;;;4.47
77355;BMP280;66422;51.202;19.936;2023-12-20T23:04:16;98282.45;;;4.78
77355;BMP280;66422;51.202;19.936;2023-12-20T23:19:36;98270.25;;;4.59
77355;BMP280;66422;51.202;19.936;2023-12-20T23:34:56;98255.67;;;4.89
77355;BMP280;66422;51.202;19.936;2023-12-20T23:50:16;98250.65;;;4.94
